Hayfield, Virginia
Current Conditions -  °F | °C
As of 5:15 AM on Sunday 25 Jan 2015 (Local Time) from KOKV Reporting Station
Overcast Overcast  
Wind Chill: 33°   Ceiling: 3500
Heat Index: 37°   Visibility: 10mi
Dew Point: 25°   Wind: 6mph
Humidity: 60%   Direction: 230°SW
Pressure: 29.75"   Gusts: NA
Location:  39.2345°N, 78.29°W
Report Text: KOKV 251015Z AUTO 23005KT 10SM OVC035 03/M04 A2975 RMK AO2
Loading
Personal Weather Stations






























Interactive Weather Map New forecast layout! Learn more

10-Day Weather Forecast

Advertisements
Track Severe Weather on mobile